Zonhoven, Belgium
Current Conditions -  °F | °C
As of 3:55 AM on Saturday 22 Nov 2014 (Local Time) from EBBL Reporting Station
Broken Clouds Broken Clouds  
Wind Chill: 37°   Ceiling: 23000
Heat Index: 37°   Visibility: NA
Dew Point: 36°   Wind: 2mph
Humidity: 93%   Direction: NA
Pressure: 30.06"   Gusts: NA
Location:  50.99°N, 5.37°E
Report Text: EBBL 220255Z AUTO VRB02KT //// BKN230/// 03/02 Q1018 BLU
Loading
Personal Weather Stations






























Interactive Weather Map New forecast layout! Learn more

10-Day Weather Forecast

Advertisements
Track Severe Weather on mobile